LNK589 FAKM-FACT
Flight info
| Callsign | LNK589 |
|---|---|
| Flight time | 1h 14m |
| Altitude | 36000 |
| Route | OKPAG1B OKPAG DCT EGNOM UQ10 CSV UZ26 ERDAS ERDAS1B |
| Aircraft | E195/M-SDE3GILORVW/S |
Departure
| Time | 2026-04-22 14:48 |
|---|---|
| Airport | Kimberley Airport (FAKM) |
Arrival
| Time | 2026-04-22 16:02 |
|---|---|
| Airport | Cape Town International Airport (FACT) |
| Time | Latitude | Longitude | Altitude | Speed | Heading |
|---|---|---|---|---|---|
| 2026-04-22 14:29 | -28.79527 | 24.77287 | 3950 ft | 0 kts | 85° |
| 2026-04-22 14:40 | -28.79528 | 24.77281 | 3950 ft | 1 kts | 85° |
| 2026-04-22 14:40 | -28.79533 | 24.77266 | 3950 ft | 2 kts | 41° |
| 2026-04-22 14:41 | -28.79547 | 24.77258 | 3949 ft | 2 kts | 359° |
| 2026-04-22 14:41 | -28.79557 | 24.77261 | 3949 ft | 1 kts | 331° |
| 2026-04-22 14:41 | -28.79563 | 24.77265 | 3949 ft | 0 kts | 330° |
| 2026-04-22 14:44 | -28.79562 | 24.77264 | 3949 ft | 0 kts | 330° |
| 2026-04-22 14:44 | -28.79542 | 24.77251 | 3949 ft | 5 kts | 330° |
| 2026-04-22 14:44 | -28.79503 | 24.77227 | 3951 ft | 7 kts | 332° |
| 2026-04-22 14:44 | -28.79447 | 24.77194 | 3952 ft | 10 kts | 333° |
| 2026-04-22 14:45 | -28.79376 | 24.77153 | 3954 ft | 11 kts | 332° |
| 2026-04-22 14:45 | -28.79329 | 24.77089 | 3956 ft | 11 kts | 278° |
| 2026-04-22 14:45 | -28.79328 | 24.76978 | 3958 ft | 16 kts | 269° |
| 2026-04-22 14:45 | -28.79328 | 24.76833 | 3958 ft | 19 kts | 270° |
| 2026-04-22 14:46 | -28.79329 | 24.76686 | 3958 ft | 17 kts | 268° |
| 2026-04-22 14:46 | -28.79330 | 24.76616 | 3959 ft | 0 kts | 271° |
| 2026-04-22 14:47 | -28.79329 | 24.76608 | 3959 ft | 2 kts | 274° |
| 2026-04-22 14:47 | -28.79327 | 24.76563 | 3960 ft | 7 kts | 271° |
| 2026-04-22 14:47 | -28.79349 | 24.76511 | 3961 ft | 8 kts | 191° |
| 2026-04-22 14:47 | -28.79407 | 24.76509 | 3960 ft | 8 kts | 180° |
| 2026-04-22 14:48 | -28.79618 | 24.76511 | 3956 ft | 72 kts | 179° |
| 2026-04-22 14:48 | -28.80425 | 24.76512 | 3945 ft | 156 kts | 179° |
| 2026-04-22 14:48 | -28.81682 | 24.76522 | 4320 ft | 193 kts | 179° |
| 2026-04-22 14:48 | -28.83020 | 24.76533 | 5261 ft | 203 kts | 180° |
| 2026-04-22 14:49 | -28.84451 | 24.76529 | 5700 ft | 212 kts | 179° |
| 2026-04-22 14:49 | -28.85937 | 24.76532 | 6199 ft | 216 kts | 179° |
| 2026-04-22 14:49 | -28.87445 | 24.76534 | 6754 ft | 219 kts | 179° |
| 2026-04-22 14:49 | -28.88906 | 24.76119 | 7301 ft | 222 kts | 207° |
| 2026-04-22 14:50 | -28.90208 | 24.75112 | 7795 ft | 240 kts | 217° |
| 2026-04-22 14:50 | -28.91600 | 24.73796 | 8437 ft | 279 kts | 219° |
| 2026-04-22 14:50 | -28.93109 | 24.72306 | 9004 ft | 288 kts | 220° |
| 2026-04-22 14:50 | -28.94617 | 24.70805 | 9553 ft | 290 kts | 220° |
| 2026-04-22 14:51 | -28.96135 | 24.69292 | 10102 ft | 292 kts | 220° |
| 2026-04-22 14:51 | -28.97645 | 24.67785 | 10647 ft | 296 kts | 220° |
| 2026-04-22 14:51 | -28.99315 | 24.66120 | 11264 ft | 331 kts | 220° |
| 2026-04-22 14:51 | -29.01069 | 24.64369 | 11822 ft | 336 kts | 220° |
| 2026-04-22 14:52 | -29.02805 | 24.62636 | 12364 ft | 335 kts | 220° |
| 2026-04-22 14:52 | -29.04565 | 24.60879 | 12915 ft | 334 kts | 220° |
| 2026-04-22 14:52 | -29.06292 | 24.59154 | 13456 ft | 334 kts | 221° |
| 2026-04-22 14:52 | -29.08043 | 24.57404 | 14005 ft | 335 kts | 221° |
| 2026-04-22 14:53 | -29.09798 | 24.55650 | 14552 ft | 336 kts | 222° |
| 2026-04-22 14:53 | -29.11549 | 24.53898 | 15098 ft | 338 kts | 223° |
| 2026-04-22 14:53 | -29.13324 | 24.52117 | 15646 ft | 341 kts | 224° |
| 2026-04-22 14:53 | -29.15104 | 24.50331 | 16192 ft | 343 kts | 224° |
| 2026-04-22 14:54 | -29.16880 | 24.48549 | 16733 ft | 346 kts | 224° |
| 2026-04-22 14:54 | -29.18703 | 24.46722 | 17283 ft | 348 kts | 224° |
| 2026-04-22 14:54 | -29.20503 | 24.44916 | 17774 ft | 352 kts | 224° |
| 2026-04-22 14:54 | -29.22345 | 24.43069 | 18189 ft | 353 kts | 224° |
| 2026-04-22 14:55 | -29.24204 | 24.41201 | 18611 ft | 355 kts | 224° |
| 2026-04-22 14:55 | -29.26058 | 24.39339 | 19031 ft | 357 kts | 224° |
| 2026-04-22 14:55 | -29.27893 | 24.37493 | 19444 ft | 358 kts | 224° |
| 2026-04-22 14:55 | -29.29780 | 24.35595 | 19866 ft | 360 kts | 224° |
| 2026-04-22 14:56 | -29.31659 | 24.33703 | 20291 ft | 362 kts | 224° |
| 2026-04-22 14:56 | -29.33561 | 24.31789 | 20724 ft | 365 kts | 224° |
| 2026-04-22 14:56 | -29.35460 | 24.29875 | 21152 ft | 366 kts | 225° |
| 2026-04-22 14:56 | -29.37356 | 24.27964 | 21578 ft | 369 kts | 225° |
| 2026-04-22 14:57 | -29.39300 | 24.26005 | 22012 ft | 371 kts | 225° |
| 2026-04-22 14:57 | -29.41199 | 24.24034 | 22436 ft | 372 kts | 228° |
| 2026-04-22 14:57 | -29.42965 | 24.21894 | 22867 ft | 373 kts | 229° |
| 2026-04-22 14:57 | -29.44771 | 24.19742 | 23298 ft | 375 kts | 229° |
| 2026-04-22 14:58 | -29.46603 | 24.17574 | 23731 ft | 378 kts | 229° |
| 2026-04-22 14:58 | -29.48415 | 24.15432 | 24154 ft | 380 kts | 229° |
| 2026-04-22 14:58 | -29.50256 | 24.13255 | 24581 ft | 382 kts | 229° |
| 2026-04-22 14:58 | -29.52112 | 24.11062 | 25009 ft | 384 kts | 229° |
| 2026-04-22 14:59 | -29.53967 | 24.08865 | 25434 ft | 387 kts | 229° |
| 2026-04-22 14:59 | -29.55838 | 24.06654 | 25861 ft | 390 kts | 229° |
| 2026-04-22 14:59 | -29.57725 | 24.04416 | 26289 ft | 392 kts | 229° |
| 2026-04-22 14:59 | -29.59642 | 24.02142 | 26720 ft | 393 kts | 229° |
| 2026-04-22 15:00 | -29.61548 | 23.99885 | 27149 ft | 397 kts | 230° |
| 2026-04-22 15:00 | -29.63463 | 23.97613 | 27578 ft | 399 kts | 230° |
| 2026-04-22 15:00 | -29.65381 | 23.95335 | 28004 ft | 401 kts | 230° |
| 2026-04-22 15:00 | -29.67308 | 23.93047 | 28426 ft | 403 kts | 230° |
| 2026-04-22 15:01 | -29.69261 | 23.90724 | 28854 ft | 406 kts | 230° |
| 2026-04-22 15:01 | -29.71234 | 23.88378 | 29255 ft | 408 kts | 230° |
| 2026-04-22 15:01 | -29.73192 | 23.86047 | 29653 ft | 411 kts | 230° |
| 2026-04-22 15:01 | -29.75184 | 23.83676 | 30054 ft | 414 kts | 230° |
| 2026-04-22 15:02 | -29.77180 | 23.81298 | 30453 ft | 416 kts | 230° |
| 2026-04-22 15:02 | -29.79183 | 23.78910 | 30848 ft | 418 kts | 230° |
| 2026-04-22 15:02 | -29.81187 | 23.76518 | 31246 ft | 420 kts | 230° |
| 2026-04-22 15:02 | -29.83220 | 23.74094 | 31646 ft | 423 kts | 230° |
| 2026-04-22 15:03 | -29.85273 | 23.71638 | 32044 ft | 425 kts | 230° |
| 2026-04-22 15:03 | -29.87321 | 23.69193 | 32441 ft | 427 kts | 230° |
| 2026-04-22 15:03 | -29.89397 | 23.66710 | 32843 ft | 431 kts | 230° |
| 2026-04-22 15:03 | -29.91460 | 23.64239 | 33235 ft | 432 kts | 230° |
| 2026-04-22 15:04 | -29.93541 | 23.61748 | 33582 ft | 435 kts | 230° |
| 2026-04-22 15:04 | -29.95649 | 23.59223 | 33817 ft | 433 kts | 230° |
| 2026-04-22 15:04 | -29.97721 | 23.56736 | 34056 ft | 432 kts | 230° |
| 2026-04-22 15:04 | -29.99806 | 23.54235 | 34297 ft | 434 kts | 230° |
| 2026-04-22 15:05 | -30.01870 | 23.51758 | 34536 ft | 434 kts | 230° |
| 2026-04-22 15:05 | -30.03980 | 23.49223 | 34778 ft | 434 kts | 230° |
| 2026-04-22 15:05 | -30.06069 | 23.46711 | 34987 ft | 435 kts | 230° |
| 2026-04-22 15:05 | -30.08160 | 23.44198 | 35151 ft | 435 kts | 230° |
| 2026-04-22 15:06 | -30.10244 | 23.41686 | 35314 ft | 435 kts | 230° |
| 2026-04-22 15:06 | -30.12330 | 23.39176 | 35476 ft | 434 kts | 230° |
| 2026-04-22 15:06 | -30.14388 | 23.36695 | 35634 ft | 434 kts | 230° |
| 2026-04-22 15:06 | -30.16474 | 23.34182 | 35799 ft | 433 kts | 231° |
| 2026-04-22 15:07 | -30.18552 | 23.31671 | 35972 ft | 433 kts | 231° |
| 2026-04-22 15:07 | -30.20638 | 23.29150 | 35999 ft | 435 kts | 231° |
| 2026-04-22 15:07 | -30.24808 | 23.24112 | 36009 ft | 437 kts | 231° |
| 2026-04-22 15:08 | -30.29005 | 23.19030 | 36008 ft | 437 kts | 231° |
| 2026-04-22 15:08 | -30.33182 | 23.13971 | 36008 ft | 436 kts | 231° |
| 2026-04-22 15:09 | -30.37371 | 23.08888 | 36011 ft | 436 kts | 231° |
| 2026-04-22 15:09 | -30.41553 | 23.03801 | 36007 ft | 436 kts | 231° |
| 2026-04-22 15:10 | -30.45721 | 22.98735 | 35999 ft | 436 kts | 231° |
| 2026-04-22 15:10 | -30.49898 | 22.93646 | 35994 ft | 438 kts | 231° |
| 2026-04-22 15:11 | -30.54074 | 22.88552 | 35993 ft | 439 kts | 232° |
| 2026-04-22 15:11 | -30.58265 | 22.83430 | 36003 ft | 439 kts | 232° |
| 2026-04-22 15:12 | -30.62453 | 22.78305 | 36007 ft | 440 kts | 232° |
| 2026-04-22 15:12 | -30.66674 | 22.73132 | 35986 ft | 442 kts | 232° |
| 2026-04-22 15:13 | -30.70868 | 22.67989 | 35968 ft | 441 kts | 232° |
| 2026-04-22 15:13 | -30.75083 | 22.62809 | 35956 ft | 442 kts | 232° |
| 2026-04-22 15:14 | -30.79273 | 22.57655 | 35928 ft | 441 kts | 232° |
| 2026-04-22 15:14 | -30.83490 | 22.52462 | 35923 ft | 441 kts | 232° |
| 2026-04-22 15:15 | -30.87661 | 22.47316 | 35922 ft | 440 kts | 232° |
| 2026-04-22 15:15 | -30.91858 | 22.42128 | 35921 ft | 440 kts | 232° |
| 2026-04-22 15:16 | -30.96022 | 22.36956 | 35917 ft | 438 kts | 233° |
| 2026-04-22 15:16 | -31.00146 | 22.31832 | 35933 ft | 436 kts | 233° |
| 2026-04-22 15:17 | -31.04284 | 22.26680 | 35933 ft | 435 kts | 233° |
| 2026-04-22 15:17 | -31.08374 | 22.21580 | 35975 ft | 431 kts | 233° |
| 2026-04-22 15:18 | -31.12445 | 22.16499 | 36023 ft | 431 kts | 233° |
| 2026-04-22 15:18 | -31.16523 | 22.11400 | 36080 ft | 431 kts | 233° |
| 2026-04-22 15:19 | -31.20601 | 22.06299 | 36133 ft | 431 kts | 233° |
| 2026-04-22 15:19 | -31.24700 | 22.01158 | 36141 ft | 431 kts | 233° |
| 2026-04-22 15:20 | -31.28759 | 21.96066 | 36142 ft | 432 kts | 233° |
| 2026-04-22 15:20 | -31.32840 | 21.90937 | 36140 ft | 432 kts | 233° |
| 2026-04-22 15:21 | -31.36891 | 21.85838 | 36137 ft | 432 kts | 233° |
| 2026-04-22 15:21 | -31.40979 | 21.80686 | 36140 ft | 432 kts | 233° |
| 2026-04-22 15:22 | -31.45039 | 21.75561 | 36138 ft | 432 kts | 233° |
| 2026-04-22 15:22 | -31.49089 | 21.70446 | 36138 ft | 432 kts | 233° |
| 2026-04-22 15:23 | -31.53153 | 21.65301 | 36136 ft | 431 kts | 233° |
| 2026-04-22 15:23 | -31.57221 | 21.60147 | 36137 ft | 431 kts | 233° |
| 2026-04-22 15:24 | -31.61283 | 21.54994 | 36138 ft | 431 kts | 233° |
| 2026-04-22 15:24 | -31.65333 | 21.49847 | 36135 ft | 432 kts | 233° |
| 2026-04-22 15:25 | -31.69379 | 21.44699 | 36135 ft | 432 kts | 233° |
| 2026-04-22 15:25 | -31.73437 | 21.39529 | 36136 ft | 432 kts | 233° |
| 2026-04-22 15:26 | -31.77473 | 21.34378 | 36137 ft | 430 kts | 234° |
| 2026-04-22 15:26 | -31.81499 | 21.29232 | 36146 ft | 430 kts | 234° |
| 2026-04-22 15:27 | -31.85523 | 21.24085 | 36146 ft | 431 kts | 234° |
| 2026-04-22 15:27 | -31.89557 | 21.18918 | 36144 ft | 431 kts | 234° |
| 2026-04-22 15:28 | -31.93609 | 21.13718 | 36147 ft | 431 kts | 234° |
| 2026-04-22 15:28 | -31.97628 | 21.08555 | 36146 ft | 431 kts | 234° |
| 2026-04-22 15:29 | -32.01656 | 21.03378 | 36143 ft | 431 kts | 234° |
| 2026-04-22 15:30 | -32.07719 | 20.95560 | 36145 ft | 432 kts | 234° |
| 2026-04-22 15:30 | -32.11707 | 20.90410 | 36140 ft | 432 kts | 235° |
| 2026-04-22 15:31 | -32.15756 | 20.85173 | 36139 ft | 431 kts | 235° |
| 2026-04-22 15:31 | -32.19783 | 20.79957 | 36141 ft | 431 kts | 235° |
| 2026-04-22 15:32 | -32.23806 | 20.74741 | 36140 ft | 431 kts | 235° |
| 2026-04-22 15:32 | -32.27816 | 20.69534 | 36138 ft | 430 kts | 235° |
| 2026-04-22 15:33 | -32.31839 | 20.64303 | 36136 ft | 431 kts | 235° |
| 2026-04-22 15:33 | -32.35852 | 20.59079 | 36118 ft | 431 kts | 235° |
| 2026-04-22 15:34 | -32.39857 | 20.53855 | 36096 ft | 431 kts | 235° |
| 2026-04-22 15:34 | -32.43896 | 20.48580 | 36072 ft | 431 kts | 235° |
| 2026-04-22 15:35 | -32.47913 | 20.43327 | 36047 ft | 432 kts | 235° |
| 2026-04-22 15:35 | -32.51908 | 20.38095 | 36027 ft | 430 kts | 235° |
| 2026-04-22 15:36 | -32.55920 | 20.32831 | 36039 ft | 430 kts | 235° |
| 2026-04-22 15:36 | -32.59891 | 20.27618 | 36036 ft | 431 kts | 235° |
| 2026-04-22 15:37 | -32.63884 | 20.22365 | 36039 ft | 432 kts | 236° |
| 2026-04-22 15:37 | -32.67886 | 20.17093 | 36037 ft | 430 kts | 236° |
| 2026-04-22 15:38 | -32.71867 | 20.11841 | 36039 ft | 430 kts | 235° |
| 2026-04-22 15:38 | -32.75861 | 20.06566 | 35782 ft | 431 kts | 236° |
| 2026-04-22 15:38 | -32.77835 | 20.03956 | 35360 ft | 427 kts | 236° |
| 2026-04-22 15:39 | -32.79810 | 20.01343 | 34934 ft | 423 kts | 236° |
| 2026-04-22 15:39 | -32.81760 | 19.98762 | 34514 ft | 420 kts | 236° |
| 2026-04-22 15:39 | -32.83672 | 19.96227 | 34098 ft | 418 kts | 236° |
| 2026-04-22 15:39 | -32.85606 | 19.93661 | 33667 ft | 416 kts | 236° |
| 2026-04-22 15:40 | -32.87509 | 19.91135 | 33246 ft | 412 kts | 236° |
| 2026-04-22 15:40 | -32.89392 | 19.88633 | 32822 ft | 409 kts | 236° |
| 2026-04-22 15:40 | -32.91275 | 19.86132 | 32394 ft | 407 kts | 236° |
| 2026-04-22 15:40 | -32.93152 | 19.83634 | 31982 ft | 404 kts | 236° |
| 2026-04-22 15:41 | -32.95005 | 19.81168 | 31692 ft | 401 kts | 236° |
| 2026-04-22 15:41 | -32.96846 | 19.78717 | 31305 ft | 401 kts | 236° |
| 2026-04-22 15:41 | -32.98691 | 19.76262 | 30878 ft | 397 kts | 236° |
| 2026-04-22 15:41 | -33.00500 | 19.73851 | 30451 ft | 393 kts | 236° |
| 2026-04-22 15:42 | -33.02293 | 19.71499 | 30030 ft | 394 kts | 234° |
| 2026-04-22 15:42 | -33.04207 | 19.69192 | 29605 ft | 391 kts | 234° |
| 2026-04-22 15:42 | -33.06086 | 19.66931 | 29183 ft | 389 kts | 234° |
| 2026-04-22 15:42 | -33.07967 | 19.64665 | 28755 ft | 386 kts | 234° |
| 2026-04-22 15:43 | -33.09827 | 19.62425 | 28331 ft | 385 kts | 234° |
| 2026-04-22 15:43 | -33.11680 | 19.60191 | 27897 ft | 383 kts | 234° |
| 2026-04-22 15:43 | -33.13533 | 19.57954 | 27458 ft | 381 kts | 234° |
| 2026-04-22 15:43 | -33.15379 | 19.55724 | 27013 ft | 378 kts | 234° |
| 2026-04-22 15:44 | -33.17188 | 19.53542 | 26581 ft | 377 kts | 234° |
| 2026-04-22 15:44 | -33.19005 | 19.51343 | 26147 ft | 376 kts | 234° |
| 2026-04-22 15:44 | -33.20833 | 19.49134 | 25704 ft | 374 kts | 234° |
| 2026-04-22 15:44 | -33.22628 | 19.46963 | 25267 ft | 371 kts | 234° |
| 2026-04-22 15:45 | -33.24411 | 19.44804 | 24831 ft | 370 kts | 234° |
| 2026-04-22 15:45 | -33.26186 | 19.42665 | 24372 ft | 362 kts | 240° |
| 2026-04-22 15:45 | -33.27604 | 19.40254 | 23967 ft | 358 kts | 241° |
| 2026-04-22 15:45 | -33.29077 | 19.37892 | 23530 ft | 357 kts | 240° |
| 2026-04-22 15:46 | -33.30577 | 19.35536 | 23089 ft | 356 kts | 240° |
| 2026-04-22 15:46 | -33.32085 | 19.33185 | 22660 ft | 354 kts | 240° |
| 2026-04-22 15:46 | -33.33565 | 19.30882 | 22242 ft | 353 kts | 240° |
| 2026-04-22 15:46 | -33.35044 | 19.28580 | 21822 ft | 351 kts | 240° |
| 2026-04-22 15:47 | -33.36523 | 19.26278 | 21399 ft | 349 kts | 240° |
| 2026-04-22 15:47 | -33.37987 | 19.23999 | 20968 ft | 343 kts | 240° |
| 2026-04-22 15:47 | -33.39373 | 19.21849 | 20493 ft | 319 kts | 240° |
| 2026-04-22 15:47 | -33.40691 | 19.19797 | 20035 ft | 306 kts | 240° |
| 2026-04-22 15:48 | -33.42222 | 19.17963 | 19578 ft | 321 kts | 228° |
| 2026-04-22 15:48 | -33.43825 | 19.16229 | 19108 ft | 319 kts | 230° |
| 2026-04-22 15:48 | -33.45482 | 19.14476 | 18610 ft | 318 kts | 229° |
| 2026-04-22 15:48 | -33.47116 | 19.12768 | 18118 ft | 316 kts | 228° |
| 2026-04-22 15:49 | -33.48644 | 19.11177 | 17658 ft | 315 kts | 228° |
| 2026-04-22 15:49 | -33.50288 | 19.09467 | 17160 ft | 313 kts | 227° |
| 2026-04-22 15:49 | -33.51901 | 19.07792 | 16657 ft | 309 kts | 227° |
| 2026-04-22 15:49 | -33.53486 | 19.06151 | 16116 ft | 292 kts | 227° |
| 2026-04-22 15:50 | -33.54956 | 19.04624 | 15599 ft | 277 kts | 227° |
| 2026-04-22 15:50 | -33.56404 | 19.03115 | 15116 ft | 277 kts | 227° |
| 2026-04-22 15:50 | -33.57843 | 19.01614 | 14626 ft | 278 kts | 226° |
| 2026-04-22 15:50 | -33.59159 | 18.99991 | 14109 ft | 271 kts | 245° |
| 2026-04-22 15:51 | -33.59934 | 18.97954 | 13664 ft | 269 kts | 249° |
| 2026-04-22 15:51 | -33.60661 | 18.95911 | 13171 ft | 270 kts | 250° |
| 2026-04-22 15:51 | -33.61360 | 18.93830 | 12675 ft | 271 kts | 251° |
| 2026-04-22 15:51 | -33.62060 | 18.91704 | 12173 ft | 272 kts | 250° |
| 2026-04-22 15:52 | -33.62749 | 18.89600 | 11566 ft | 271 kts | 250° |
| 2026-04-22 15:52 | -33.63415 | 18.87563 | 10936 ft | 262 kts | 250° |
| 2026-04-22 15:52 | -33.64069 | 18.85559 | 10296 ft | 254 kts | 250° |
| 2026-04-22 15:52 | -33.64702 | 18.83621 | 9661 ft | 247 kts | 249° |
| 2026-04-22 15:53 | -33.65311 | 18.81752 | 9034 ft | 241 kts | 249° |
| 2026-04-22 15:53 | -33.65916 | 18.79895 | 8398 ft | 236 kts | 249° |
| 2026-04-22 15:53 | -33.66505 | 18.78088 | 7768 ft | 232 kts | 248° |
| 2026-04-22 15:53 | -33.67084 | 18.76312 | 7140 ft | 229 kts | 248° |
| 2026-04-22 15:54 | -33.67661 | 18.74537 | 6505 ft | 226 kts | 247° |
| 2026-04-22 15:54 | -33.68218 | 18.72827 | 5886 ft | 224 kts | 247° |
| 2026-04-22 15:54 | -33.68776 | 18.71110 | 5328 ft | 218 kts | 246° |
| 2026-04-22 15:54 | -33.69323 | 18.69433 | 4811 ft | 212 kts | 243° |
| 2026-04-22 15:55 | -33.70270 | 18.68160 | 4255 ft | 205 kts | 219° |
| 2026-04-22 15:55 | -33.71323 | 18.67090 | 3861 ft | 197 kts | 219° |
| 2026-04-22 15:55 | -33.72364 | 18.66045 | 3446 ft | 192 kts | 218° |
| 2026-04-22 15:55 | -33.73381 | 18.65029 | 3275 ft | 191 kts | 218° |
| 2026-04-22 15:56 | -33.74402 | 18.64011 | 3016 ft | 188 kts | 218° |
| 2026-04-22 15:56 | -33.75384 | 18.63030 | 2755 ft | 183 kts | 218° |
| 2026-04-22 15:56 | -33.76357 | 18.62060 | 2532 ft | 176 kts | 218° |
| 2026-04-22 15:56 | -33.77261 | 18.61158 | 2500 ft | 168 kts | 217° |
| 2026-04-22 15:57 | -33.78163 | 18.60259 | 2507 ft | 169 kts | 217° |
| 2026-04-22 15:57 | -33.79071 | 18.59352 | 2507 ft | 170 kts | 217° |
| 2026-04-22 15:57 | -33.79990 | 18.58434 | 2505 ft | 171 kts | 217° |
| 2026-04-22 15:57 | -33.80859 | 18.57565 | 2496 ft | 156 kts | 217° |
| 2026-04-22 15:58 | -33.81683 | 18.56741 | 2501 ft | 153 kts | 217° |
| 2026-04-22 15:58 | -33.82592 | 18.56116 | 2437 ft | 156 kts | 186° |
| 2026-04-22 15:58 | -33.83656 | 18.56246 | 2429 ft | 154 kts | 173° |
| 2026-04-22 15:58 | -33.84744 | 18.56509 | 2367 ft | 159 kts | 169° |
| 2026-04-22 15:59 | -33.85801 | 18.56816 | 2201 ft | 153 kts | 168° |
| 2026-04-22 15:59 | -33.86822 | 18.57127 | 1951 ft | 151 kts | 168° |
| 2026-04-22 15:59 | -33.87821 | 18.57437 | 1804 ft | 141 kts | 167° |
| 2026-04-22 15:59 | -33.88742 | 18.57734 | 1649 ft | 137 kts | 168° |
| 2026-04-22 16:00 | -33.89654 | 18.58022 | 1472 ft | 134 kts | 168° |
| 2026-04-22 16:00 | -33.90546 | 18.58303 | 1290 ft | 132 kts | 167° |
| 2026-04-22 16:00 | -33.91422 | 18.58588 | 1084 ft | 128 kts | 168° |
| 2026-04-22 16:00 | -33.92261 | 18.58857 | 865 ft | 126 kts | 167° |
| 2026-04-22 16:01 | -33.93101 | 18.59120 | 687 ft | 129 kts | 167° |
| 2026-04-22 16:01 | -33.93980 | 18.59401 | 622 ft | 129 kts | 167° |
| 2026-04-22 16:01 | -33.94839 | 18.59664 | 459 ft | 126 kts | 168° |
| 2026-04-22 16:01 | -33.95682 | 18.59917 | 259 ft | 123 kts | 167° |
| 2026-04-22 16:02 | -33.96475 | 18.60169 | 160 ft | 110 kts | 166° |
| 2026-04-22 16:02 | -33.97046 | 18.60346 | 156 ft | 65 kts | 165° |
| 2026-04-22 16:02 | -33.97442 | 18.60474 | 156 ft | 54 kts | 165° |
| 2026-04-22 16:02 | -33.97676 | 18.60548 | 153 ft | 19 kts | 165° |
| 2026-04-22 16:03 | -33.97743 | 18.60568 | 152 ft | 9 kts | 171° |
| 2026-04-22 16:03 | -33.97787 | 18.60519 | 152 ft | 10 kts | 275° |
| 2026-04-22 16:03 | -33.97765 | 18.60430 | 152 ft | 13 kts | 288° |
| 2026-04-22 16:03 | -33.97742 | 18.60299 | 150 ft | 18 kts | 281° |
| 2026-04-22 16:04 | -33.97723 | 18.60215 | 151 ft | 8 kts | 301° |
| 2026-04-22 16:04 | -33.97672 | 18.60170 | 152 ft | 11 kts | 338° |
| 2026-04-22 16:04 | -33.97583 | 18.60128 | 154 ft | 14 kts | 338° |
| 2026-04-22 16:04 | -33.97486 | 18.60081 | 155 ft | 16 kts | 343° |
| 2026-04-22 16:05 | -33.97367 | 18.60041 | 155 ft | 19 kts | 348° |
| 2026-04-22 16:05 | -33.97242 | 18.60001 | 157 ft | 10 kts | 346° |
| 2026-04-22 16:05 | -33.97213 | 18.59958 | 158 ft | 7 kts | 259° |
| 2026-04-22 16:05 | -33.97223 | 18.59909 | 157 ft | 2 kts | 255° |
| 2026-04-22 16:06 | -33.97226 | 18.59897 | 157 ft | 0 kts | 256° |